createdAt,value
2023-02-16T00:00:52.822Z,3.20
2023-02-16T00:01:56.332Z,3.20
2023-02-16T00:02:59.175Z,3.20
2023-02-16T00:04:03.122Z,3.20
2023-02-16T00:05:22.356Z,3.20
2023-02-16T00:06:26.132Z,3.20
2023-02-16T00:07:28.043Z,3.20
2023-02-16T00:08:30.932Z,3.20
2023-02-16T00:09:33.856Z,3.20
2023-02-16T00:10:37.555Z,3.10
2023-02-16T00:12:06.613Z,3.20
2023-02-16T00:13:45.621Z,3.20
2023-02-16T00:14:48.638Z,3.20
2023-02-16T00:15:50.699Z,3.20
2023-02-16T00:16:54.351Z,3.30
2023-02-16T00:17:58.661Z,3.30
2023-02-16T00:19:01.725Z,3.40
2023-02-16T00:20:06.876Z,3.40
2023-02-16T00:21:09.773Z,3.40
2023-02-16T00:22:12.688Z,3.30
2023-02-16T00:23:14.930Z,3.30
2023-02-16T00:24:18.403Z,3.30
2023-02-16T00:25:20.326Z,3.20
2023-02-16T00:26:25.300Z,3.30
2023-02-16T00:27:28.606Z,3.30
2023-02-16T00:28:31.585Z,3.30
2023-02-16T00:29:36.179Z,3.20
2023-02-16T00:30:38.963Z,3.20
2023-02-16T00:31:42.035Z,3.10
2023-02-16T00:32:44.211Z,3.20
2023-02-16T00:33:49.591Z,3.10
2023-02-16T00:34:52.608Z,3.10
2023-02-16T00:35:54.592Z,3.10
2023-02-16T00:36:59.169Z,3.20
2023-02-16T00:38:01.117Z,3.20
2023-02-16T00:39:04.097Z,3.30
2023-02-16T00:40:07.379Z,3.20
2023-02-16T00:41:39.381Z,3.20
2023-02-16T00:42:44.134Z,3.20
2023-02-16T00:43:47.110Z,3.10
2023-02-16T00:44:51.692Z,3.00
2023-02-16T00:45:55.637Z,3.10
2023-02-16T00:46:58.953Z,3.10
2023-02-16T00:48:01.915Z,3.10
2023-02-16T00:49:04.083Z,3.10
2023-02-16T00:50:15.833Z,3.10
2023-02-16T00:51:25.760Z,3.10
2023-02-16T00:52:35.244Z,3.00
2023-02-16T00:53:37.182Z,3.10
2023-02-16T00:54:40.067Z,3.00
2023-02-16T00:55:43.724Z,3.00
2023-02-16T00:56:47.517Z,2.90
2023-02-16T00:57:52.399Z,3.00
2023-02-16T00:58:55.378Z,3.00
2023-02-16T01:00:02.172Z,3.10
2023-02-16T01:01:09.557Z,3.10
2023-02-16T01:02:11.797Z,3.10
2023-02-16T01:03:17.324Z,3.00
2023-02-16T01:04:22.429Z,3.10
2023-02-16T01:05:25.855Z,3.10
2023-02-16T01:06:46.426Z,3.10
2023-02-16T01:08:06.915Z,3.00
2023-02-16T01:09:33.453Z,2.90
2023-02-16T01:12:05.232Z,3.00
2023-02-16T01:13:07.248Z,3.10
2023-02-16T01:14:12.923Z,3.10
2023-02-16T01:15:17.548Z,3.10
2023-02-16T01:16:22.801Z,3.10
2023-02-16T01:17:25.249Z,3.10
2023-02-16T01:18:28.208Z,3.00
2023-02-16T01:19:30.186Z,3.10
2023-02-16T01:20:33.163Z,3.00
2023-02-16T01:21:35.115Z,3.00
2023-02-16T01:22:38.061Z,3.00
2023-02-16T01:23:40.265Z,3.00
2023-02-16T01:24:43.158Z,3.00
2023-02-16T01:25:45.188Z,3.00
2023-02-16T01:26:50.704Z,3.00
2023-02-16T01:27:54.278Z,3.00
2023-02-16T01:28:57.214Z,2.90
2023-02-16T01:29:59.131Z,2.90
2023-02-16T01:31:02.519Z,3.00
2023-02-16T01:32:04.840Z,2.90
2023-02-16T01:33:07.846Z,2.90
2023-02-16T01:34:10.088Z,2.90
2023-02-16T01:35:13.250Z,2.90
2023-02-16T01:36:23.393Z,3.00
2023-02-16T01:37:26.327Z,3.10
2023-02-16T01:38:28.921Z,3.10
2023-02-16T01:39:31.855Z,3.20
2023-02-16T01:40:40.958Z,3.20
2023-02-16T01:41:57.086Z,3.20
2023-02-16T01:43:04.277Z,3.20
2023-02-16T01:44:13.908Z,3.10
2023-02-16T01:45:19.031Z,3.10
2023-02-16T01:46:29.702Z,3.10
2023-02-16T01:47:38.079Z,3.30
2023-02-16T01:48:41.256Z,3.30
2023-02-16T01:49:43.200Z,3.20
2023-02-16T01:50:50.548Z,3.30
2023-02-16T01:51:57.422Z,3.30
2023-02-16T01:53:04.759Z,3.20
2023-02-16T01:54:14.199Z,3.20
2023-02-16T01:55:23.087Z,3.20
2023-02-16T01:56:30.840Z,3.20
2023-02-16T01:57:41.099Z,3.20
2023-02-16T01:58:48.354Z,3.20
2023-02-16T02:00:13.412Z,3.30
2023-02-16T02:01:43.167Z,3.20
2023-02-16T02:02:50.476Z,3.20
2023-02-16T02:04:11.085Z,3.20
2023-02-16T02:05:36.743Z,3.10
2023-02-16T02:06:39.039Z,3.00
2023-02-16T02:07:45.983Z,3.00
2023-02-16T02:08:54.361Z,3.00
2023-02-16T02:10:03.720Z,2.90
2023-02-16T02:11:12.395Z,3.00
2023-02-16T02:12:23.850Z,2.90
2023-02-16T02:13:33.843Z,3.00
2023-02-16T02:14:39.337Z,3.00
2023-02-16T02:15:42.341Z,3.00
2023-02-16T02:16:54.422Z,3.00
2023-02-16T02:17:57.346Z,3.00
2023-02-16T02:18:59.259Z,2.90
2023-02-16T02:20:12.121Z,2.90
2023-02-16T02:21:50.371Z,3.10
2023-02-16T02:23:34.240Z,3.00
2023-02-16T02:25:16.026Z,3.00
2023-02-16T02:27:10.951Z,3.00
2023-02-16T02:28:17.686Z,3.00
2023-02-16T02:29:44.772Z,3.00
2023-02-16T02:30:50.341Z,3.00
2023-02-16T02:32:00.837Z,3.00
2023-02-16T02:33:16.290Z,3.00
2023-02-16T02:34:26.990Z,3.00
2023-02-16T02:35:44.818Z,3.00
2023-02-16T02:36:53.192Z,3.00
2023-02-16T02:38:03.974Z,3.00
2023-02-16T02:39:19.887Z,2.90
2023-02-16T02:40:31.220Z,2.90
2023-02-16T02:41:57.475Z,2.90
2023-02-16T02:43:08.512Z,3.00
2023-02-16T02:44:12.097Z,2.90
2023-02-16T02:45:19.725Z,3.00
2023-02-16T02:46:26.484Z,3.00
2023-02-16T02:47:41.973Z,3.10
2023-02-16T02:48:43.933Z,3.10
2023-02-16T02:49:54.195Z,3.10
2023-02-16T02:51:16.451Z,3.10
2023-02-16T02:52:19.684Z,3.00
2023-02-16T02:53:21.965Z,2.90
2023-02-16T02:54:46.494Z,2.90
2023-02-16T02:56:08.950Z,3.10
2023-02-16T02:57:37.591Z,3.10
2023-02-16T02:59:00.451Z,3.00
2023-02-16T03:00:25.795Z,2.90
2023-02-16T03:01:29.185Z,2.90
2023-02-16T03:02:33.538Z,2.90
2023-02-16T03:03:41.377Z,3.10
2023-02-16T03:04:47.005Z,3.00
2023-02-16T03:05:55.855Z,3.00
2023-02-16T03:07:01.279Z,3.00
2023-02-16T03:08:13.988Z,3.00
2023-02-16T03:09:17.007Z,3.00
2023-02-16T03:10:40.408Z,2.90
2023-02-16T03:12:03.876Z,2.90
2023-02-16T03:13:11.240Z,2.90
2023-02-16T03:14:17.027Z,3.00
2023-02-16T03:15:20.514Z,3.00
2023-02-16T03:16:27.906Z,3.00
2023-02-16T03:17:53.291Z,2.80
2023-02-16T03:19:14.801Z,2.90
2023-02-16T03:20:35.671Z,2.80
2023-02-16T03:21:57.093Z,2.90
2023-02-16T03:23:21.442Z,2.90
2023-02-16T03:24:45.373Z,2.80
2023-02-16T03:26:06.275Z,2.90
2023-02-16T03:27:27.781Z,2.90
2023-02-16T03:28:50.589Z,2.90
2023-02-16T03:29:57.251Z,2.90
2023-02-16T03:31:01.545Z,3.00
2023-02-16T03:32:05.275Z,3.00
2023-02-16T03:33:07.369Z,3.00
2023-02-16T03:34:10.559Z,2.90
2023-02-16T03:35:12.803Z,3.00
2023-02-16T03:36:15.862Z,3.00
2023-02-16T03:37:19.076Z,3.00
2023-02-16T03:38:21.522Z,3.00
2023-02-16T03:39:24.532Z,3.00
2023-02-16T03:40:28.600Z,3.00
2023-02-16T03:41:35.093Z,3.00
2023-02-16T03:42:37.041Z,3.10
2023-02-16T03:43:39.938Z,3.00
2023-02-16T03:44:41.820Z,3.00
2023-02-16T03:45:46.904Z,3.00
2023-02-16T03:46:49.601Z,3.10
2023-02-16T03:47:52.551Z,3.00
2023-02-16T03:48:54.507Z,3.00
2023-02-16T03:49:57.390Z,3.00
2023-02-16T03:51:00.290Z,3.00
2023-02-16T03:52:02.275Z,3.00
2023-02-16T03:53:08.110Z,3.00
2023-02-16T03:54:10.187Z,3.00
2023-02-16T03:55:13.270Z,3.10
2023-02-16T03:56:15.198Z,2.90
2023-02-16T03:57:18.078Z,3.00
2023-02-16T03:58:22.637Z,3.00
2023-02-16T03:59:25.577Z,3.00
2023-02-16T04:00:27.673Z,3.00
2023-02-16T04:01:32.072Z,2.90
2023-02-16T04:02:33.986Z,2.90
2023-02-16T04:03:37.016Z,2.80
2023-02-16T04:04:39.002Z,2.90
2023-02-16T04:05:42.787Z,3.00
2023-02-16T04:06:44.738Z,3.10
2023-02-16T04:07:47.703Z,3.10
2023-02-16T04:08:51.531Z,3.20
2023-02-16T04:09:53.515Z,3.10
2023-02-16T04:10:57.527Z,3.10
2023-02-16T04:12:17.983Z,3.20
2023-02-16T04:13:20.156Z,3.20
2023-02-16T04:14:22.147Z,3.20
2023-02-16T04:15:27.163Z,3.10
2023-02-16T04:16:30.518Z,3.10
2023-02-16T04:17:33.533Z,3.10
2023-02-16T04:18:35.492Z,3.10
2023-02-16T04:19:38.461Z,3.10
2023-02-16T04:20:40.504Z,3.00
2023-02-16T04:21:43.968Z,3.00
2023-02-16T04:22:46.671Z,3.10
2023-02-16T04:23:49.672Z,3.00
2023-02-16T04:24:51.690Z,3.00
2023-02-16T04:25:54.603Z,3.00
2023-02-16T04:26:56.709Z,3.10
2023-02-16T04:27:59.782Z,3.10
2023-02-16T04:29:02.755Z,3.00
2023-02-16T04:30:07.472Z,3.10
2023-02-16T04:31:09.572Z,3.10
2023-02-16T04:32:14.008Z,3.20
2023-02-16T04:33:15.926Z,3.10
2023-02-16T04:34:18.952Z,3.10
2023-02-16T04:35:21.435Z,3.10
2023-02-16T04:36:24.335Z,3.20
2023-02-16T04:37:27.227Z,3.20
2023-02-16T04:38:29.142Z,3.10
2023-02-16T04:39:32.119Z,3.20
2023-02-16T04:40:34.046Z,3.20
2023-02-16T04:41:36.939Z,3.10
2023-02-16T04:42:38.936Z,3.10
2023-02-16T04:43:41.811Z,3.00
2023-02-16T04:44:43.826Z,3.00
2023-02-16T04:45:46.840Z,2.90
2023-02-16T04:46:48.758Z,2.90
2023-02-16T04:47:52.995Z,2.80
2023-02-16T04:48:54.912Z,2.90
2023-02-16T04:49:57.875Z,2.90
2023-02-16T04:50:59.876Z,2.90
2023-02-16T04:52:03.954Z,2.90
2023-02-16T04:53:05.911Z,2.90
2023-02-16T04:54:09.289Z,3.10
2023-02-16T04:55:11.264Z,3.00
2023-02-16T04:56:14.599Z,3.00
2023-02-16T04:57:17.506Z,3.00
2023-02-16T04:58:20.424Z,3.00
2023-02-16T04:59:22.383Z,3.00
2023-02-16T05:00:25.742Z,3.10
2023-02-16T05:01:28.612Z,3.10
2023-02-16T05:02:32.791Z,3.20
2023-02-16T05:03:36.114Z,3.20
2023-02-16T05:04:39.189Z,3.10
2023-02-16T05:05:41.346Z,3.10
2023-02-16T05:06:44.620Z,3.10
2023-02-16T05:07:47.560Z,3.00
2023-02-16T05:08:49.573Z,3.10
2023-02-16T05:09:52.694Z,3.10
2023-02-16T05:11:09.568Z,3.10
2023-02-16T05:12:30.266Z,3.10
2023-02-16T05:13:51.085Z,2.90
2023-02-16T05:14:54.032Z,3.00
2023-02-16T05:15:56.727Z,3.10
2023-02-16T05:16:59.739Z,3.10
2023-02-16T05:18:02.628Z,3.10
2023-02-16T05:19:05.944Z,3.20
2023-02-16T05:20:09.235Z,3.20
2023-02-16T05:21:29.439Z,3.10
2023-02-16T05:22:33.554Z,3.10
2023-02-16T05:23:35.473Z,3.20
2023-02-16T05:24:38.991Z,3.20
2023-02-16T05:25:41.194Z,3.20
2023-02-16T05:26:44.130Z,3.30
2023-02-16T05:27:47.138Z,3.30
2023-02-16T05:28:49.149Z,3.10
2023-02-16T05:29:52.424Z,3.00
2023-02-16T05:30:54.461Z,2.70
2023-02-16T05:31:57.843Z,1.40
2023-02-16T05:32:59.835Z,1.80
2023-02-16T05:34:02.734Z,2.10
2023-02-16T05:35:07.503Z,2.40
2023-02-16T05:36:09.898Z,2.50
2023-02-16T05:37:13.304Z,2.60
2023-02-16T05:38:15.333Z,2.70
2023-02-16T05:39:18.341Z,2.80
2023-02-16T05:40:20.443Z,2.90
2023-02-16T05:41:26.334Z,2.90
2023-02-16T05:42:28.248Z,2.90
2023-02-16T05:43:31.264Z,3.00
2023-02-16T05:44:33.310Z,3.10
2023-02-16T05:45:36.438Z,3.00
2023-02-16T05:46:40.438Z,3.10
2023-02-16T05:47:45.077Z,3.10
2023-02-16T05:48:48.965Z,3.10
2023-02-16T05:49:51.862Z,3.00
2023-02-16T05:50:55.628Z,3.00
2023-02-16T05:51:58.596Z,3.00
2023-02-16T05:53:00.533Z,3.00
2023-02-16T05:54:03.445Z,3.00
2023-02-16T05:55:06.988Z,2.90
2023-02-16T05:56:09.031Z,2.80
2023-02-16T05:57:12.052Z,2.90
2023-02-16T05:58:14.058Z,2.90
2023-02-16T05:59:17.671Z,2.80
2023-02-16T06:00:21.271Z,2.90
2023-02-16T06:01:24.243Z,2.80
2023-02-16T06:02:26.219Z,2.80
2023-02-16T06:03:29.590Z,2.80
2023-02-16T06:04:32.754Z,2.90
2023-02-16T06:05:34.679Z,2.90
2023-02-16T06:06:40.438Z,3.00
2023-02-16T06:07:42.597Z,2.90
2023-02-16T06:08:45.661Z,2.90
2023-02-16T06:09:47.658Z,3.00
2023-02-16T06:10:51.667Z,3.00
2023-02-16T06:11:53.645Z,3.10
2023-02-16T06:12:56.606Z,3.10
2023-02-16T06:13:59.413Z,3.10
2023-02-16T06:15:02.509Z,3.10
2023-02-16T06:16:07.681Z,3.20
2023-02-16T06:17:10.675Z,3.20
2023-02-16T06:18:13.546Z,3.20
2023-02-16T06:19:18.528Z,3.20
2023-02-16T06:20:20.651Z,3.10
2023-02-16T06:21:24.832Z,3.20
2023-02-16T06:22:28.216Z,3.10
2023-02-16T06:23:31.195Z,3.10
2023-02-16T06:24:34.097Z,3.00
2023-02-16T06:25:36.114Z,3.10
2023-02-16T06:26:39.156Z,3.10
2023-02-16T06:27:41.056Z,3.20
2023-02-16T06:28:44.176Z,3.30
2023-02-16T06:29:47.249Z,3.40
2023-02-16T06:30:50.053Z,3.50
2023-02-16T06:31:53.080Z,3.40
2023-02-16T06:32:55.227Z,3.40
2023-02-16T06:33:58.138Z,3.20
2023-02-16T06:35:00.036Z,3.20
2023-02-16T06:36:03.000Z,3.30
2023-02-16T06:37:05.906Z,3.30
2023-02-16T06:38:09.179Z,3.20
2023-02-16T06:39:12.350Z,3.30
2023-02-16T06:40:15.852Z,3.30
2023-02-16T06:41:31.288Z,3.30
2023-02-16T06:42:33.610Z,3.30
2023-02-16T06:43:36.656Z,3.20
2023-02-16T06:44:44.215Z,3.20
2023-02-16T06:45:47.933Z,3.20
2023-02-16T06:46:49.972Z,3.30
2023-02-16T06:47:52.895Z,3.30
2023-02-16T06:48:55.936Z,3.30
2023-02-16T06:49:58.900Z,3.30
2023-02-16T06:51:01.008Z,3.30
2023-02-16T06:52:04.009Z,3.30
2023-02-16T06:53:06.065Z,3.30
2023-02-16T06:54:10.560Z,3.30
2023-02-16T06:55:12.764Z,3.20
2023-02-16T06:56:16.093Z,3.20
2023-02-16T06:57:19.084Z,3.20
2023-02-16T06:58:21.076Z,3.10
2023-02-16T06:59:24.090Z,3.20
2023-02-16T07:00:26.392Z,3.10
2023-02-16T07:01:29.899Z,3.10
2023-02-16T07:02:31.893Z,3.10
2023-02-16T07:03:35.387Z,3.20
2023-02-16T07:04:37.579Z,3.20
2023-02-16T07:05:40.520Z,3.20
2023-02-16T07:06:44.410Z,3.20
2023-02-16T07:07:46.387Z,3.20
2023-02-16T07:08:49.557Z,3.20
2023-02-16T07:09:53.039Z,3.20
2023-02-16T07:10:56.046Z,3.30
2023-02-16T07:11:59.422Z,3.40
2023-02-16T07:13:02.386Z,3.30
2023-02-16T07:14:04.344Z,3.30
2023-02-16T07:15:07.796Z,3.30
2023-02-16T07:16:11.290Z,3.20
2023-02-16T07:17:14.246Z,3.30
2023-02-16T07:18:16.314Z,3.30
2023-02-16T07:19:19.979Z,3.30
2023-02-16T07:20:22.098Z,3.30
2023-02-16T07:21:25.052Z,3.30
2023-02-16T07:22:27.053Z,3.40
2023-02-16T07:23:30.099Z,3.50
2023-02-16T07:24:32.114Z,3.50
2023-02-16T07:25:37.254Z,3.50
2023-02-16T07:26:40.324Z,3.50
2023-02-16T07:27:43.306Z,3.50
2023-02-16T07:28:45.242Z,3.60
2023-02-16T07:29:48.176Z,3.60
2023-02-16T07:30:51.263Z,3.90
2023-02-16T07:31:54.538Z,3.50
2023-02-16T07:32:57.755Z,3.40
2023-02-16T07:33:59.732Z,3.40
2023-02-16T07:35:02.723Z,3.50
2023-02-16T07:36:05.660Z,3.50
2023-02-16T07:37:09.020Z,3.50
2023-02-16T07:38:11.275Z,3.40
2023-02-16T07:39:14.174Z,3.40
2023-02-16T07:40:16.101Z,3.50
2023-02-16T07:41:20.394Z,3.40
2023-02-16T07:42:22.350Z,3.40
2023-02-16T07:43:25.809Z,3.40
2023-02-16T07:44:27.848Z,3.30
2023-02-16T07:45:32.606Z,3.30
2023-02-16T07:46:34.651Z,3.40
2023-02-16T07:47:37.650Z,3.30
2023-02-16T07:48:39.592Z,3.30
2023-02-16T07:49:42.699Z,3.40
2023-02-16T07:50:44.610Z,3.40
2023-02-16T07:51:47.590Z,3.40
2023-02-16T07:52:49.554Z,3.40
2023-02-16T07:53:53.063Z,3.50
2023-02-16T07:54:56.040Z,3.50
2023-02-16T07:55:58.082Z,3.50
2023-02-16T07:57:02.410Z,3.50
2023-02-16T07:58:04.791Z,4.00
2023-02-16T07:59:07.751Z,3.50
2023-02-16T08:00:11.731Z,3.50
2023-02-16T08:01:15.946Z,3.60
2023-02-16T08:02:19.753Z,3.60
2023-02-16T08:03:21.951Z,3.60
2023-02-16T08:04:25.102Z,3.60
2023-02-16T08:05:27.082Z,3.40
2023-02-16T08:06:30.188Z,3.50
2023-02-16T08:07:32.156Z,3.50
2023-02-16T08:08:35.139Z,3.50
2023-02-16T08:09:38.084Z,3.50
2023-02-16T08:10:40.223Z,3.50
2023-02-16T08:11:43.293Z,3.50
2023-02-16T08:12:49.743Z,3.60
2023-02-16T08:13:51.999Z,3.70
2023-02-16T08:14:54.974Z,3.70
2023-02-16T08:15:56.933Z,3.70
2023-02-16T08:16:59.961Z,3.70
2023-02-16T08:18:01.895Z,3.60
2023-02-16T08:19:05.054Z,3.60
2023-02-16T08:20:10.816Z,3.50
2023-02-16T08:21:16.084Z,3.60
2023-02-16T08:22:19.411Z,3.50
2023-02-16T08:23:21.384Z,3.50
2023-02-16T08:24:25.057Z,3.40
2023-02-16T08:25:27.286Z,3.30
2023-02-16T08:26:36.749Z,3.40
2023-02-16T08:27:38.733Z,3.40
2023-02-16T08:28:45.969Z,3.40
2023-02-16T08:29:49.107Z,3.50
2023-02-16T08:30:51.391Z,3.50
2023-02-16T08:31:55.500Z,3.50
2023-02-16T08:33:00.888Z,3.50
2023-02-16T08:34:04.769Z,3.50
2023-02-16T08:35:07.864Z,3.60
2023-02-16T08:36:18.383Z,3.60
2023-02-16T08:37:22.608Z,3.50
2023-02-16T08:38:24.811Z,3.60
2023-02-16T08:39:29.917Z,3.60
2023-02-16T08:40:31.990Z,3.70
2023-02-16T08:41:37.224Z,2.70
2023-02-16T08:42:40.607Z,2.00
2023-02-16T08:43:44.443Z,1.70
2023-02-16T08:44:47.833Z,1.20
2023-02-16T08:45:49.889Z,0.80
2023-02-16T08:46:54.960Z,0.60
2023-02-16T08:47:57.495Z,0.90
2023-02-16T08:49:01.711Z,0.70
2023-02-16T08:50:03.889Z,0.50
2023-02-16T08:51:07.525Z,0.60
2023-02-16T08:52:12.380Z,0.60
2023-02-16T08:53:15.365Z,0.40
2023-02-16T08:54:20.158Z,1.00
2023-02-16T08:55:24.168Z,0.70
2023-02-16T08:56:27.158Z,0.80
2023-02-16T08:57:30.287Z,0.80
2023-02-16T08:58:32.448Z,0.70
2023-02-16T08:59:36.813Z,0.70
2023-02-16T09:00:39.068Z,0.80
2023-02-16T09:01:42.227Z,0.80
2023-02-16T09:02:44.820Z,0.70
2023-02-16T09:03:48.509Z,0.80
2023-02-16T09:04:52.245Z,0.80
2023-02-16T09:05:55.037Z,0.70
2023-02-16T09:06:59.559Z,0.70
2023-02-16T09:08:01.562Z,0.70
2023-02-16T09:09:04.993Z,0.80
2023-02-16T09:10:08.780Z,0.80
2023-02-16T09:11:13.666Z,0.80
2023-02-16T09:12:16.564Z,0.60
2023-02-16T09:13:19.511Z,0.60
2023-02-16T09:14:22.983Z,0.60
2023-02-16T09:15:27.553Z,0.90
2023-02-16T09:16:33.894Z,1.30
2023-02-16T09:17:37.419Z,1.20
2023-02-16T09:18:39.881Z,0.90
2023-02-16T09:19:43.467Z,0.90
2023-02-16T09:20:47.084Z,0.80
2023-02-16T09:21:51.940Z,0.70
2023-02-16T09:22:53.966Z,0.60
2023-02-16T09:23:58.238Z,0.60
2023-02-16T09:25:01.274Z,0.70
2023-02-16T09:26:07.022Z,0.60
2023-02-16T09:27:11.473Z,0.70
2023-02-16T09:28:13.792Z,0.70
2023-02-16T09:29:16.662Z,0.70
2023-02-16T09:30:18.745Z,1.10
2023-02-16T09:31:27.296Z,1.50
2023-02-16T09:32:30.411Z,1.90
2023-02-16T09:33:33.548Z,2.20
2023-02-16T09:34:37.894Z,2.50
2023-02-16T09:35:40.105Z,2.60
2023-02-16T09:36:43.354Z,2.90
2023-02-16T09:37:45.276Z,2.90
2023-02-16T09:38:49.077Z,3.10
2023-02-16T09:39:52.011Z,3.10
2023-02-16T09:40:54.067Z,3.10
2023-02-16T09:42:12.238Z,3.10
2023-02-16T09:43:36.096Z,3.30
2023-02-16T09:44:52.163Z,3.50
2023-02-16T09:45:58.648Z,3.40
2023-02-16T09:47:05.861Z,3.40
2023-02-16T09:48:19.898Z,3.40
2023-02-16T09:49:27.587Z,3.50
2023-02-16T09:50:53.084Z,3.50
2023-02-16T09:52:03.065Z,3.50
2023-02-16T09:53:17.921Z,3.60
2023-02-16T09:54:28.288Z,3.50
2023-02-16T09:55:37.927Z,3.50
2023-02-16T09:56:46.277Z,3.60
2023-02-16T09:57:58.724Z,3.60
2023-02-16T09:59:10.730Z,3.60
2023-02-16T10:00:24.449Z,3.70
2023-02-16T10:01:33.662Z,3.80
2023-02-16T10:02:50.031Z,3.80
2023-02-16T10:04:01.922Z,3.70
2023-02-16T10:05:18.125Z,3.70
2023-02-16T10:06:43.003Z,3.70
2023-02-16T10:07:56.306Z,3.70
2023-02-16T10:09:04.230Z,3.50
2023-02-16T10:10:09.441Z,3.60
2023-02-16T10:11:31.846Z,3.60
2023-02-16T10:12:39.828Z,3.70
2023-02-16T10:13:53.522Z,3.80
2023-02-16T10:15:01.359Z,3.90
2023-02-16T10:16:10.843Z,3.90
2023-02-16T10:17:22.084Z,3.90
2023-02-16T10:18:36.658Z,4.00
2023-02-16T10:19:46.050Z,4.00
2023-02-16T10:20:52.328Z,4.00
2023-02-16T10:21:59.123Z,4.00
2023-02-16T10:23:08.325Z,2.70
2023-02-16T10:24:12.352Z,2.10
2023-02-16T10:25:19.526Z,1.90
2023-02-16T10:26:28.356Z,1.70
2023-02-16T10:27:39.116Z,1.50
2023-02-16T10:28:46.333Z,1.50
2023-02-16T10:29:49.547Z,1.40
2023-02-16T10:31:02.917Z,1.50
2023-02-16T10:32:24.025Z,1.40
2023-02-16T10:33:39.385Z,1.60
2023-02-16T10:34:50.350Z,1.40
2023-02-16T10:36:01.300Z,1.40
2023-02-16T10:37:20.670Z,1.30
2023-02-16T10:38:32.241Z,1.40
2023-02-16T10:39:40.763Z,1.10
2023-02-16T10:40:51.839Z,1.00
2023-02-16T10:42:03.529Z,0.90
2023-02-16T10:43:16.296Z,1.10
2023-02-16T10:44:23.720Z,1.10
2023-02-16T10:45:32.923Z,1.20
2023-02-16T10:46:40.933Z,1.20
2023-02-16T10:47:45.218Z,1.30
2023-02-16T10:48:52.961Z,1.50
2023-02-16T10:49:56.076Z,1.50
2023-02-16T10:51:02.860Z,1.40
2023-02-16T10:52:07.894Z,1.20
2023-02-16T10:53:16.718Z,1.20
2023-02-16T10:54:22.463Z,1.20
2023-02-16T10:55:26.117Z,1.30
2023-02-16T10:56:44.875Z,1.40
2023-02-16T10:57:54.622Z,1.40
2023-02-16T10:58:57.463Z,1.50
2023-02-16T11:00:04.695Z,1.60
2023-02-16T11:01:15.363Z,1.60
2023-02-16T11:02:19.718Z,1.60
2023-02-16T11:03:26.490Z,1.80
2023-02-16T11:04:39.830Z,1.90
2023-02-16T11:05:43.147Z,1.90
2023-02-16T11:07:03.211Z,1.80
2023-02-16T11:08:08.166Z,1.80
2023-02-16T11:09:16.937Z,1.80
2023-02-16T11:10:22.071Z,1.70
2023-02-16T11:11:26.398Z,1.70
2023-02-16T11:12:32.396Z,1.70
2023-02-16T11:13:37.233Z,1.80
2023-02-16T11:14:40.821Z,1.90
2023-02-16T11:15:44.439Z,2.00
2023-02-16T11:16:47.931Z,2.10
2023-02-16T11:17:52.945Z,2.20
2023-02-16T11:19:01.670Z,2.20
2023-02-16T11:20:10.153Z,2.20
2023-02-16T11:21:12.471Z,2.20
2023-02-16T11:22:27.901Z,2.20
2023-02-16T11:23:32.687Z,2.30
2023-02-16T11:24:37.596Z,2.30
2023-02-16T11:25:40.965Z,2.40
2023-02-16T11:26:43.959Z,2.40
2023-02-16T11:27:52.402Z,2.40
2023-02-16T11:29:07.530Z,2.30
2023-02-16T11:30:22.445Z,2.50
2023-02-16T11:31:32.620Z,2.90
2023-02-16T11:32:34.696Z,3.20
2023-02-16T11:33:38.731Z,3.50
2023-02-16T11:34:46.885Z,3.70
2023-02-16T11:35:52.095Z,3.90
2023-02-16T11:37:03.335Z,4.00
2023-02-16T11:38:07.457Z,4.10
2023-02-16T11:39:20.100Z,4.20
2023-02-16T11:40:26.191Z,4.20
2023-02-16T11:41:30.325Z,4.30
2023-02-16T11:42:36.092Z,4.30
2023-02-16T11:43:43.400Z,4.40
2023-02-16T11:44:54.075Z,4.40
2023-02-16T11:46:02.583Z,4.50
2023-02-16T11:47:09.383Z,4.50
2023-02-16T11:48:15.228Z,4.60
2023-02-16T11:49:31.593Z,4.50
2023-02-16T11:50:38.544Z,4.60
2023-02-16T11:51:41.885Z,4.60
2023-02-16T11:52:47.087Z,4.60
2023-02-16T11:54:02.735Z,4.70
2023-02-16T11:55:18.337Z,4.70
2023-02-16T11:56:27.124Z,4.70
2023-02-16T11:57:32.095Z,4.40
2023-02-16T11:58:34.026Z,4.50
2023-02-16T11:59:39.568Z,4.60
2023-02-16T12:00:46.795Z,4.60
2023-02-16T12:02:25.768Z,4.60
2023-02-16T12:03:47.573Z,4.40
2023-02-16T12:05:07.553Z,4.40
2023-02-16T12:06:28.459Z,4.50
2023-02-16T12:07:40.536Z,4.50
2023-02-16T12:08:53.015Z,4.50
2023-02-16T12:10:02.999Z,4.60
2023-02-16T12:11:19.429Z,4.60
2023-02-16T12:12:30.955Z,4.60
2023-02-16T12:13:43.047Z,4.70
2023-02-16T12:14:54.742Z,4.70
2023-02-16T12:16:08.274Z,4.60
2023-02-16T12:17:27.887Z,4.60
2023-02-16T12:18:38.939Z,4.60
2023-02-16T12:19:44.522Z,4.70
2023-02-16T12:20:54.722Z,4.80
2023-02-16T12:22:04.575Z,4.70
2023-02-16T12:23:26.837Z,4.70
2023-02-16T12:24:45.979Z,4.80
2023-02-16T12:26:00.032Z,4.70
2023-02-16T12:27:04.220Z,4.70
2023-02-16T12:28:18.488Z,4.70
2023-02-16T12:29:35.282Z,4.80
2023-02-16T12:30:52.644Z,4.80
2023-02-16T12:32:21.463Z,4.90
2023-02-16T12:33:38.592Z,5.00
2023-02-16T12:34:55.689Z,5.10
2023-02-16T12:36:12.865Z,5.00
2023-02-16T12:37:22.611Z,4.90
2023-02-16T12:38:37.258Z,4.90
2023-02-16T12:39:48.039Z,4.90
2023-02-16T12:41:01.668Z,4.90
2023-02-16T12:42:21.911Z,4.90
2023-02-16T12:43:34.338Z,4.90
2023-02-16T12:44:42.595Z,4.90
2023-02-16T12:45:48.209Z,4.90
2023-02-16T12:46:58.918Z,4.90
2023-02-16T12:48:08.806Z,5.10
2023-02-16T12:49:17.672Z,5.10
2023-02-16T12:50:23.283Z,5.10
2023-02-16T12:51:31.595Z,5.10
2023-02-16T12:52:41.286Z,5.20
2023-02-16T12:53:51.973Z,5.20
2023-02-16T12:55:00.686Z,5.20
2023-02-16T12:56:08.201Z,5.30
2023-02-16T12:57:14.369Z,5.20
2023-02-16T12:58:21.879Z,5.20
2023-02-16T12:59:31.751Z,5.20
2023-02-16T13:00:46.414Z,5.20
2023-02-16T13:01:52.652Z,5.20
2023-02-16T13:03:00.311Z,5.20
2023-02-16T13:04:14.258Z,5.20
2023-02-16T13:05:23.604Z,5.20
2023-02-16T13:06:31.797Z,5.30
2023-02-16T13:07:39.844Z,5.40
2023-02-16T13:08:48.626Z,5.50
2023-02-16T13:09:58.966Z,5.40
2023-02-16T13:11:10.522Z,5.40
2023-02-16T13:12:21.982Z,5.40
2023-02-16T13:13:26.679Z,5.50
2023-02-16T13:14:34.761Z,5.50
2023-02-16T13:15:41.478Z,5.50
2023-02-16T13:16:48.240Z,5.50
2023-02-16T13:17:57.048Z,5.50
2023-02-16T13:19:00.091Z,5.40
2023-02-16T13:20:04.404Z,5.40
2023-02-16T13:21:11.817Z,5.50
2023-02-16T13:22:47.562Z,5.50
2023-02-16T13:24:00.568Z,5.50
2023-02-16T13:25:22.218Z,5.50
2023-02-16T13:26:50.088Z,5.60
2023-02-16T13:28:06.815Z,5.60
2023-02-16T13:29:35.305Z,5.50
2023-02-16T13:30:57.221Z,5.50
2023-02-16T13:32:22.898Z,5.50
2023-02-16T13:33:45.088Z,5.60
2023-02-16T13:35:24.482Z,5.60
2023-02-16T13:36:54.182Z,5.70
2023-02-16T13:38:05.937Z,5.70
2023-02-16T13:39:42.350Z,5.70
2023-02-16T13:41:06.555Z,5.80
2023-02-16T13:42:34.558Z,5.90
2023-02-16T13:43:42.052Z,5.80
2023-02-16T13:44:48.457Z,5.80
2023-02-16T13:45:54.581Z,5.70
2023-02-16T13:46:57.077Z,5.60
2023-02-16T13:48:00.950Z,5.60
2023-02-16T13:49:04.382Z,5.70
2023-02-16T13:50:27.341Z,5.80
2023-02-16T13:51:42.803Z,5.80
2023-02-16T13:52:44.791Z,5.70
2023-02-16T13:53:55.394Z,5.60
2023-02-16T13:55:01.399Z,5.60
2023-02-16T13:56:23.185Z,5.70
2023-02-16T13:57:58.268Z,5.60
2023-02-16T13:59:18.640Z,5.60
2023-02-16T14:00:29.947Z,5.60
2023-02-16T14:01:39.172Z,5.60
2023-02-16T14:02:57.397Z,5.50
2023-02-16T14:04:01.230Z,5.50
2023-02-16T14:05:09.944Z,5.50
2023-02-16T14:06:34.530Z,5.50
2023-02-16T14:07:38.199Z,5.50
2023-02-16T14:08:42.985Z,5.60
2023-02-16T14:09:48.741Z,5.50
2023-02-16T14:11:10.971Z,5.50
2023-02-16T14:12:17.692Z,5.60
2023-02-16T14:13:21.899Z,5.60
2023-02-16T14:14:30.197Z,5.00
2023-02-16T14:15:34.083Z,4.50
2023-02-16T14:16:37.176Z,4.20
2023-02-16T14:17:40.196Z,4.10
2023-02-16T14:18:45.885Z,4.50
2023-02-16T14:19:55.384Z,4.10
2023-02-16T14:21:01.519Z,4.00
2023-02-16T14:22:12.184Z,3.90
2023-02-16T14:23:29.691Z,3.70
2023-02-16T14:24:34.042Z,3.60
2023-02-16T14:25:40.080Z,3.50
2023-02-16T14:27:05.988Z,3.40
2023-02-16T14:28:42.252Z,3.50
2023-02-16T14:29:54.690Z,3.60
2023-02-16T14:30:58.770Z,3.50
2023-02-16T14:32:07.376Z,3.60
2023-02-16T14:33:20.235Z,3.60
2023-02-16T14:34:27.452Z,3.50
2023-02-16T14:35:33.878Z,3.50
2023-02-16T14:36:56.827Z,3.40
2023-02-16T14:38:01.299Z,3.50
2023-02-16T14:39:03.427Z,3.50
2023-02-16T14:40:19.547Z,3.50
2023-02-16T14:41:32.210Z,3.60
2023-02-16T14:42:36.282Z,3.50
2023-02-16T14:43:42.762Z,3.40
2023-02-16T14:45:03.488Z,3.40
2023-02-16T14:46:28.731Z,3.40
2023-02-16T14:47:42.740Z,3.40
2023-02-16T14:49:07.672Z,3.40
2023-02-16T14:50:35.041Z,3.30
2023-02-16T14:52:15.884Z,3.30
2023-02-16T14:53:38.626Z,3.20
2023-02-16T14:55:29.422Z,3.20
2023-02-16T14:56:40.357Z,3.20
2023-02-16T14:57:51.808Z,3.20
2023-02-16T14:58:59.507Z,3.10
2023-02-16T15:00:13.576Z,3.10
2023-02-16T15:01:18.066Z,2.90